createdAt,value
2018-11-04T16:05:51.765Z,24.23
2018-11-04T16:08:20.662Z,26.57
2018-11-04T16:10:49.671Z,25.53
2018-11-04T16:13:18.211Z,25.20
2018-11-04T16:15:47.063Z,24.10
2018-11-04T16:18:15.947Z,24.97
2018-11-04T16:20:44.227Z,24.90
2018-11-04T16:23:12.808Z,25.07
2018-11-04T16:25:41.294Z,25.00
2018-11-04T16:28:09.713Z,26.10
2018-11-04T16:30:38.540Z,24.90
2018-11-04T16:33:07.071Z,25.23
2018-11-04T16:35:36.135Z,26.13
2018-11-04T16:38:05.225Z,28.57
2018-11-04T16:40:33.815Z,34.20
2018-11-04T16:43:02.587Z,31.03
2018-11-04T16:45:30.963Z,31.97
2018-11-04T16:47:59.636Z,31.40
2018-11-04T16:50:28.314Z,33.03
2018-11-04T16:52:56.735Z,38.47
2018-11-04T16:55:25.147Z,38.07
2018-11-04T16:57:53.575Z,40.93
2018-11-04T17:00:30.247Z,51.73
2018-11-04T17:02:59.363Z,38.50
2018-11-04T17:05:28.236Z,36.07
2018-11-04T17:07:57.518Z,36.97
2018-11-04T17:10:26.131Z,34.75
2018-11-04T17:12:54.663Z,34.03
2018-11-04T17:15:23.340Z,35.13
2018-11-04T17:17:51.950Z,34.27
2018-11-04T17:20:20.594Z,34.20
2018-11-04T17:22:49.893Z,33.90
2018-11-04T17:25:18.888Z,35.70
2018-11-04T17:27:47.488Z,35.63
2018-11-04T17:30:18.510Z,33.93
2018-11-04T17:32:47.574Z,35.07
2018-11-04T17:35:16.943Z,33.77
2018-11-04T17:37:46.676Z,34.03
2018-11-04T17:40:16.338Z,35.00
2018-11-04T17:42:45.194Z,33.70
2018-11-04T17:45:15.620Z,33.03
2018-11-04T17:47:44.921Z,32.07
2018-11-04T17:50:15.516Z,34.37
2018-11-04T17:52:44.959Z,32.67
2018-11-04T17:55:13.403Z,30.80
2018-11-04T17:57:42.212Z,29.63
2018-11-04T18:00:11.376Z,30.77
2018-11-04T18:02:40.834Z,28.80
2018-11-04T18:05:10.478Z,28.57
2018-11-04T18:07:39.131Z,27.80
2018-11-04T18:10:08.417Z,27.60
2018-11-04T18:12:36.818Z,28.03
2018-11-04T18:15:06.114Z,28.70
2018-11-04T18:17:34.510Z,27.20
2018-11-04T18:20:03.490Z,28.27
2018-11-04T18:22:32.141Z,28.20
2018-11-04T18:25:00.911Z,27.80
2018-11-04T18:27:29.379Z,28.20
2018-11-04T18:29:57.867Z,28.27
2018-11-04T18:32:26.367Z,27.57
2018-11-04T18:34:54.871Z,27.63
2018-11-04T18:37:23.713Z,28.90
2018-11-04T18:39:52.697Z,28.93
2018-11-04T18:42:21.246Z,28.57
2018-11-04T18:44:49.807Z,30.60
2018-11-04T18:47:18.704Z,29.17
2018-11-04T18:49:48.406Z,30.27
2018-11-04T18:52:16.967Z,29.93
2018-11-04T18:54:45.742Z,29.50
2018-11-04T18:57:14.206Z,31.43
2018-11-04T18:59:42.649Z,30.80
2018-11-04T19:02:11.158Z,31.23
2018-11-04T19:04:39.808Z,30.03
2018-11-04T19:07:08.864Z,29.87
2018-11-04T19:09:37.442Z,31.87
2018-11-04T19:12:06.237Z,32.10
2018-11-04T19:14:34.974Z,32.77
2018-11-04T19:17:03.697Z,32.43
2018-11-04T19:19:33.403Z,33.03
2018-11-04T19:22:02.452Z,33.50
2018-11-04T19:24:31.061Z,32.20
2018-11-04T19:26:59.841Z,32.37
2018-11-04T19:29:28.445Z,31.23
2018-11-04T19:31:56.918Z,32.93
2018-11-04T19:34:25.293Z,32.47
2018-11-04T19:36:53.685Z,32.10
2018-11-04T19:39:22.139Z,32.67
2018-11-04T19:41:50.783Z,33.83
2018-11-04T19:44:20.296Z,32.43
2018-11-04T19:46:49.619Z,35.23
2018-11-04T19:49:18.618Z,34.43
2018-11-04T19:51:47.588Z,34.43
2018-11-04T19:54:16.006Z,33.03
2018-11-04T19:56:44.539Z,34.90
2018-11-04T19:59:13.017Z,32.77
2018-11-04T20:01:41.998Z,35.07
2018-11-04T20:04:10.400Z,34.77
2018-11-04T20:06:38.831Z,34.57
2018-11-04T20:09:14.819Z,34.07
2018-11-04T20:11:44.444Z,35.87
2018-11-04T20:14:23.091Z,37.40
2018-11-04T20:16:52.889Z,38.43
2018-11-04T20:19:26.722Z,41.00
2018-11-04T20:21:55.893Z,44.60
2018-11-04T20:24:29.583Z,40.93
2018-11-04T20:26:58.064Z,42.50
2018-11-04T20:29:26.713Z,41.27
2018-11-04T20:32:00.454Z,42.30
2018-11-04T20:34:29.060Z,48.93
2018-11-04T20:36:58.203Z,43.43
2018-11-04T20:39:31.921Z,42.33
2018-11-04T20:42:00.425Z,42.97
2018-11-04T20:44:29.345Z,48.33
2018-11-04T20:46:59.077Z,46.30
2018-11-04T20:49:33.769Z,51.50
2018-11-04T20:52:03.081Z,51.27
2018-11-04T20:54:31.430Z,52.83
2018-11-04T20:57:05.296Z,52.40
2018-11-04T20:59:34.013Z,56.83
2018-11-04T21:02:02.762Z,51.03
2018-11-04T21:04:31.560Z,47.87
2018-11-04T21:07:00.017Z,49.03
2018-11-04T21:09:28.474Z,44.80
2018-11-04T21:11:57.115Z,45.63
2018-11-04T21:14:25.865Z,47.93
2018-11-04T21:16:54.287Z,48.57
2018-11-04T21:19:23.178Z,45.07
2018-11-04T21:21:51.746Z,45.00
2018-11-04T21:24:20.350Z,40.93
2018-11-04T21:26:48.951Z,42.33
2018-11-04T21:29:17.920Z,38.87
2018-11-04T21:31:46.769Z,37.93
2018-11-04T21:34:15.214Z,35.80
2018-11-04T21:36:45.981Z,34.17
2018-11-04T21:39:14.529Z,34.23
2018-11-04T21:41:43.164Z,34.60
2018-11-04T21:44:12.068Z,32.47
2018-11-04T21:46:40.526Z,31.97
2018-11-04T21:49:08.953Z,29.27
